Time;durP1;ratioP1;P1;durP2;ratioP2;P2;SDS_P1;SDS_P2;PMS_P1;PMS_P2;Temp;Humidity;BMP_temperature;BMP_pressure;BME280_temperature;BME280_humidity;BME280_pressure;Samples;Min_cycle;Max_cycle;Signal;HPM_P1;HPM_P2
2022/01/24 00:01:52;;;;;;;8.90;3.30;;;;;;;-4.69;67.49;101606.22;6284836;28;20095;-73
2022/01/24 00:04:53;;;;;;;;;;;;;;;-4.65;68.04;101602.91;6239854;28;20070;-73
2022/01/24 00:07:53;;;;;;;6.47;3.08;;;;;;;-4.64;67.02;101611.41;6273435;28;19924;-73
2022/01/24 00:10:55;;;;;;;6.93;3.85;;;;;;;-4.69;68.20;101606.22;6239252;28;20045;-73
2022/01/24 00:26:57;;;;;;;7.25;3.97;;;;;;;-4.99;70.45;101621.50;6256232;28;20061;-69
2022/01/24 00:29:58;;;;;;;7.77;3.37;;;;;;;-5.22;70.62;101614.09;6255386;28;20041;-68
2022/01/24 00:32:59;;;;;;;9.52;4.50;;;;;;;-5.15;70.89;101618.53;6255252;28;20282;-74
2022/01/24 00:35:59;;;;;;;3.72;2.35;;;;;;;-5.23;71.30;101627.63;6255391;28;20094;-73
2022/01/24 00:39:01;;;;;;;11.65;4.07;;;;;;;-5.27;71.78;101625.84;6272696;28;20091;-73
2022/01/24 00:45:33;;;;;;;6.75;3.20;;;;;;;-5.18;71.85;101627.78;6264259;28;20048;-73
2022/01/24 00:48:39;;;;;;;9.98;4.03;;;;;;;-5.23;72.42;101639.50;6282296;28;20060;-73
2022/01/24 00:55:02;;;;;;;8.25;3.55;;;;;;;-5.18;71.91;101637.97;6282401;28;20037;-69
2022/01/24 00:58:04;;;;;;;9.32;4.15;;;;;;;-5.06;71.29;101636.63;6297074;28;20141;-68
2022/01/24 01:01:05;;;;;;;8.15;3.97;;;;;;;-5.14;70.00;101643.16;6262763;28;20500;-69
2022/01/24 01:04:06;;;;;;;5.53;3.60;;;;;;;-5.00;70.13;101642.69;6262449;28;20105;-68
2022/01/24 01:07:07;;;;;;;5.47;3.20;;;;;;;-5.08;71.07;101637.41;6278692;28;20044;-69
2022/01/24 01:20:09;;;;;;;11.63;4.38;;;;;;;-5.04;69.92;101643.41;6296863;28;20090;-69
2022/01/24 01:23:11;;;;;;;5.22;3.33;;;;;;;-5.06;69.65;101644.25;6279325;28;20139;-69
2022/01/24 01:29:28;;;;;;;8.60;4.45;;;;;;;-4.99;69.08;101637.66;6296902;28;20044;-69
2022/01/24 01:36:22;;;;;;;9.38;3.08;;;;;;;-5.03;69.19;101645.16;6225213;28;20065;-69
2022/01/24 01:52:52;;;;;;;6.75;3.15;;;;;;;-5.17;69.91;101637.97;6296609;28;20105;-73
2022/01/24 01:55:48;;;;;;;6.82;2.97;;;;;;;-5.18;70.34;101638.81;6295805;28;20060;-73
2022/01/24 01:58:49;;;;;;;6.28;3.33;;;;;;;-5.26;70.00;101642.81;6278596;28;20123;-73
2022/01/24 02:01:50;;;;;;;9.13;3.83;;;;;;;-5.20;70.27;101642.13;6296364;28;20102;-73
2022/01/24 02:04:50;;;;;;;6.80;3.97;;;;;;;-5.28;70.52;101632.59;6278646;28;20511;-73
2022/01/24 02:07:53;;;;;;;8.82;4.20;;;;;;;-5.21;70.55;101633.63;6296300;28;20049;-73
2022/01/24 02:10:55;;;;;;;7.43;4.45;;;;;;;-5.23;70.56;101636.94;6278394;28;20519;-73
2022/01/24 02:13:59;;;;;;;10.15;4.22;;;;;;;-5.20;70.15;101639.59;6296472;28;20052;-73
2022/01/24 02:17:05;;;;;;;5.25;2.72;;;;;;;-5.27;69.91;101636.88;6278748;28;20397;-73
2022/01/24 02:26:20;;;;;;;5.30;3.28;;;;;;;-5.33;71.55;101626.50;6283251;28;20057;-73
2022/01/24 02:29:48;;;;;;;6.03;3.22;;;;;;;-5.36;71.32;101623.88;6266615;28;20505;-73
2022/01/24 02:32:43;;;;;;;9.73;3.97;;;;;;;-5.37;71.53;101626.38;6285066;28;20053;-73
2022/01/24 02:35:44;;;;;;;5.85;2.53;;;;;;;-5.39;70.87;101635.66;6282661;28;20052;-73
2022/01/24 02:39:27;;;;;;;5.82;3.08;;;;;;;-5.44;71.72;101632.94;6282988;28;20048;-73
2022/01/24 02:48:46;;;;;;;7.68;2.70;;;;;;;-5.54;72.35;101643.66;6284991;28;20047;-68
2022/01/24 02:51:47;;;;;;;7.93;3.47;;;;;;;-5.57;73.28;101644.44;6299512;28;20040;-73
2022/01/24 02:54:49;;;;;;;8.30;3.45;;;;;;;-5.58;72.79;101647.81;6299400;28;20386;-73
2022/01/24 02:57:50;;;;;;;7.57;3.88;;;;;;;-5.56;71.91;101650.41;6249364;28;20496;-74
2022/01/24 03:00:51;;;;;;;8.15;3.95;;;;;;;-5.53;72.52;101650.50;6282050;28;20040;-74
2022/01/24 03:03:52;;;;;;;6.30;3.60;;;;;;;-5.64;72.18;101632.38;6282115;28;20048;-73
2022/01/24 03:06:54;;;;;;;11.25;4.43;;;;;;;-5.58;72.46;101646.94;6282073;28;20044;-74
2022/01/24 03:09:55;;;;;;;4.03;2.63;;;;;;;-5.62;72.77;101652.75;6265424;28;20516;-73
2022/01/24 03:13:17;;;;;;;6.70;3.60;;;;;;;-5.61;72.74;101659.56;6265569;28;20067;-73
2022/01/24 03:16:17;;;;;;;12.98;4.55;;;;;;;-5.72;73.00;101655.03;6284977;28;20123;-74
2022/01/24 03:19:18;;;;;;;10.15;3.83;;;;;;;-5.62;71.93;101652.75;6299528;28;20045;-74
2022/01/24 03:22:19;;;;;;;12.88;4.47;;;;;;;-5.63;72.94;101656.97;6265099;28;20123;-73
2022/01/24 03:25:20;;;;;;;8.48;4.43;;;;;;;-5.62;73.97;101653.63;6281637;28;20507;-74
2022/01/24 03:28:22;;;;;;;9.60;4.18;;;;;;;-5.59;72.49;101661.34;6264981;28;20060;-73
2022/01/24 03:31:23;;;;;;;11.45;5.20;;;;;;;-5.65;72.32;101667.94;6281370;28;20048;-69
2022/01/24 03:34:25;;;;;;;9.98;4.28;;;;;;;-5.76;72.81;101663.38;6281610;28;20076;-68
2022/01/24 03:37:26;;;;;;;8.98;4.68;;;;;;;-5.77;73.52;101666.72;6281396;28;20469;-70
2022/01/24 03:40:27;;;;;;;7.97;3.88;;;;;;;-5.76;73.82;101672.69;6281111;28;20135;-68
2022/01/24 03:43:28;;;;;;;10.70;4.22;;;;;;;-5.83;73.19;101669.06;6263071;28;20084;-68
2022/01/24 03:46:46;;;;;;;11.05;4.80;;;;;;;-5.84;73.74;101676.66;6223687;28;20099;-68
2022/01/24 03:49:48;;;;;;;12.63;5.07;;;;;;;-5.89;74.08;101674.84;6256243;28;20045;-68
2022/01/24 03:52:49;;;;;;;6.85;3.30;;;;;;;-6.03;74.15;101683.72;6256006;28;20052;-68
2022/01/24 03:55:50;;;;;;;11.27;5.03;;;;;;;-6.00;74.92;101690.56;6273613;28;20048;-68
2022/01/24 03:58:51;;;;;;;6.68;3.45;;;;;;;-6.12;74.77;101696.97;6239341;28;20080;-69
2022/01/24 04:01:52;;;;;;;9.82;4.90;;;;;;;-6.08;75.60;101695.41;6273596;28;20087;-68
2022/01/24 04:04:53;;;;;;;14.40;5.40;;;;;;;-6.06;75.51;101696.31;6255846;28;20541;-68
2022/01/24 04:07:54;;;;;;;11.00;5.40;;;;;;;-6.08;75.81;101697.94;6256002;28;20055;-69
2022/01/24 04:10:57;;;;;;;10.07;5.05;;;;;;;-6.16;76.08;101705.31;6255728;28;20761;-73
2022/01/24 04:14:10;;;;;;;10.50;4.63;;;;;;;-6.19;76.57;101711.97;6239712;28;20691;-73
2022/01/24 04:23:33;;;;;;;10.07;5.07;;;;;;;-6.33;77.71;101706.41;6273208;28;20041;-74
2022/01/24 04:26:36;;;;;;;13.80;6.85;;;;;;;-6.34;77.06;101708.09;6255858;28;20419;-73
2022/01/24 04:29:37;;;;;;;;;;;;;;;-6.38;77.69;101713.00;6239489;28;20040;-73
2022/01/24 04:32:37;;;;;;;7.32;3.47;;;;;;;-6.33;77.30;101717.44;6272722;28;20250;-69
2022/01/24 04:35:38;;;;;;;13.20;4.28;;;;;;;-6.26;77.76;101723.59;6272344;28;20045;-68
2022/01/24 04:38:39;;;;;;;9.48;4.78;;;;;;;-6.32;77.34;101720.84;6254443;28;20037;-69
2022/01/24 04:41:44;;;;;;;10.50;4.78;;;;;;;-6.32;77.62;101725.91;6241285;28;20095;-70
2022/01/24 04:57:39;;;;;;;9.27;4.55;;;;;;;-6.30;77.82;101758.22;6263813;28;20045;-73
2022/01/24 05:00:40;;;;;;;12.15;4.68;;;;;;;-6.35;78.03;101761.38;6297239;28;20504;-74
2022/01/24 05:03:40;;;;;;;10.13;4.82;;;;;;;-6.40;77.79;101768.84;6279327;28;20064;-73
2022/01/24 05:06:41;;;;;;;8.45;4.38;;;;;;;-6.41;78.31;101774.72;6279385;28;20044;-74
2022/01/24 05:26:18;;;;;;;8.93;4.68;;;;;;;-6.62;79.14;101817.13;6296639;28;20071;-73
2022/01/24 05:29:19;;;;;;;8.65;4.72;;;;;;;-6.69;80.08;101805.88;6297039;28;20044;-73
2022/01/24 05:32:20;;;;;;;10.07;5.10;;;;;;;-6.62;80.15;101812.06;6296694;28;20047;-74
2022/01/24 05:35:21;;;;;;;11.77;5.30;;;;;;;-6.63;80.08;101810.31;6297231;28;20040;-74
2022/01/24 05:38:22;;;;;;;28.42;13.40;;;;;;;-6.60;79.70;101818.91;6284231;28;20036;-73
2022/01/24 05:41:23;;;;;;;12.40;6.32;;;;;;;-6.63;80.60;101808.66;6263305;28;20503;-73
2022/01/24 05:44:24;;;;;;;9.50;4.95;;;;;;;-6.70;81.37;101815.16;6304773;28;20438;-72
2022/01/24 05:47:25;;;;;;;12.68;5.55;;;;;;;-6.74;80.78;101807.38;6277795;28;20056;-73
2022/01/24 05:50:26;;;;;;;12.75;5.47;;;;;;;-6.85;81.25;101801.91;6296066;28;20429;-73
2022/01/24 05:53:27;;;;;;;12.38;4.65;;;;;;;-6.92;83.16;101821.13;6295527;28;20086;-74
2022/01/24 05:56:28;;;;;;;14.20;5.18;;;;;;;-6.84;81.87;101818.00;6315970;28;20428;-73
2022/01/24 05:59:29;;;;;;;8.13;4.80;;;;;;;-6.85;82.51;101823.88;6283014;28;20037;-72
2022/01/24 06:02:29;;;;;;;7.82;4.70;;;;;;;-6.83;82.05;101814.66;6302873;28;20119;-72
2022/01/24 06:05:30;;;;;;;8.20;4.38;;;;;;;-6.82;80.97;101826.53;6300870;28;20043;-68
2022/01/24 06:08:31;;;;;;;11.65;6.25;;;;;;;-6.78;81.69;101823.31;6282779;28;20070;-68
2022/01/24 06:11:32;;;;;;;12.93;5.82;;;;;;;-6.77;81.88;101835.19;6320158;28;20044;-68
2022/01/24 06:14:33;;;;;;;14.32;5.40;;;;;;;-6.71;80.83;101835.44;6291945;28;20174;-69
2022/01/24 06:17:34;;;;;;;14.55;6.07;;;;;;;-6.71;80.43;101841.38;6300170;28;20119;-68
2022/01/24 06:20:35;;;;;;;13.75;7.22;;;;;;;-6.82;81.60;101849.38;6321770;28;20070;-69
2022/01/24 06:23:36;;;;;;;14.85;7.40;;;;;;;-6.79;81.00;101852.03;6303998;28;20062;-68
2022/01/24 06:26:36;;;;;;;14.10;6.57;;;;;;;-6.77;80.65;101853.84;6325114;28;20409;-68
2022/01/24 06:29:37;;;;;;;15.77;7.47;;;;;;;-6.81;80.94;101853.66;6306818;28;20524;-69
2022/01/24 06:32:38;;;;;;;12.55;5.70;;;;;;;-6.75;80.61;101854.75;6305849;28;20458;-68
2022/01/24 06:35:39;;;;;;;15.98;6.28;;;;;;;-6.79;81.38;101860.53;6273441;28;20051;-69
2022/01/24 06:38:40;;;;;;;14.93;7.57;;;;;;;-6.81;81.94;101851.13;6324784;28;20064;-69
2022/01/24 06:41:43;;;;;;;15.48;7.25;;;;;;;-6.78;80.49;101858.84;6324234;28;20059;-69
2022/01/24 06:44:45;;;;;;;14.50;7.15;;;;;;;-6.73;80.77;101873.44;6306708;28;20040;-68
2022/01/24 06:47:46;;;;;;;16.05;6.47;;;;;;;-6.68;80.79;101876.16;6324481;28;20067;-68
2022/01/24 06:50:46;;;;;;;11.90;6.40;;;;;;;-6.66;80.10;101888.91;6324513;28;20036;-68
2022/01/24 06:53:48;;;;;;;12.38;6.57;;;;;;;-6.81;82.48;101884.13;6306197;28;20545;-69
2022/01/24 06:56:49;;;;;;;20.60;7.47;;;;;;;-6.58;81.05;101893.47;6324830;28;20036;-70
2022/01/24 06:59:50;;;;;;;32.25;12.43;;;;;;;-6.44;79.81;101891.47;6306189;28;20484;-68
2022/01/24 07:02:51;;;;;;;31.73;11.52;;;;;;;-6.37;78.52;101890.88;6305878;28;20051;-69
2022/01/24 07:05:52;;;;;;;63.60;18.65;;;;;;;-6.33;77.72;101886.78;6323475;28;20044;-68
2022/01/24 07:08:53;;;;;;;49.85;20.20;;;;;;;-6.35;78.65;101885.88;6289008;28;20545;-68
2022/01/24 07:11:54;;;;;;;19.60;6.63;;;;;;;-6.39;78.02;101882.34;6289302;28;20048;-69
2022/01/24 07:14:55;;;;;;;46.95;17.50;;;;;;;-6.28;79.05;101888.69;6306025;28;20404;-68
2022/01/24 07:21:07;;;;;;;47.20;16.13;;;;;;;-6.00;77.41;101888.84;6297883;28;20128;-68
2022/01/24 07:24:08;;;;;;;41.37;14.33;;;;;;;-5.97;75.74;101881.31;6298593;28;20044;-69
2022/01/24 07:27:09;;;;;;;31.33;11.00;;;;;;;-5.96;75.06;101895.75;6247797;28;20040;-73
2022/01/24 07:30:10;;;;;;;33.30;12.95;;;;;;;-5.80;74.06;101892.06;6298602;28;20048;-68
2022/01/24 07:33:11;;;;;;;21.88;9.07;;;;;;;-5.68;74.81;101893.34;6264053;28;20556;-73
2022/01/24 07:36:13;;;;;;;16.73;8.63;;;;;;;-5.46;73.04;101909.34;6298436;28;20393;-73
2022/01/24 07:39:14;;;;;;;20.40;9.63;;;;;;;-5.47;72.73;101905.94;6298372;28;20105;-69
2022/01/24 07:42:17;;;;;;;19.70;9.13;;;;;;;-5.35;72.07;101918.22;6280062;28;20052;-70
2022/01/24 07:45:20;;;;;;;21.13;9.27;;;;;;;-5.19;71.07;101918.72;6317124;28;20539;-73
2022/01/24 07:48:21;;;;;;;30.75;9.63;;;;;;;-5.16;70.36;101923.94;6305260;28;20072;-70
2022/01/24 07:51:22;;;;;;;8.48;4.38;;;;;;;-5.15;69.01;101923.09;6323127;28;20040;-74
2022/01/24 07:54:23;;;;;;;19.02;8.10;;;;;;;-5.17;68.88;101929.81;6322915;28;20118;-69
2022/01/24 07:57:24;;;;;;;47.95;18.58;;;;;;;-4.98;68.65;101926.19;6323061;28;20044;-67
2022/01/24 08:00:25;;;;;;;44.45;18.20;;;;;;;-4.94;67.34;101928.91;6304872;28;20040;-68
2022/01/24 08:03:26;;;;;;;16.25;8.13;;;;;;;-5.01;66.47;101926.13;6288133;28;20476;-69
2022/01/24 08:06:28;;;;;;;29.85;12.45;;;;;;;-4.80;66.00;101936.97;6304858;28;20040;-67
2022/01/24 08:09:28;;;;;;;27.88;11.52;;;;;;;-4.50;65.12;101937.09;6288156;28;20097;-68
2022/01/24 08:12:30;;;;;;;35.33;12.98;;;;;;;-4.32;65.02;101943.56;6304666;28;20044;-73
2022/01/24 08:15:31;;;;;;;27.47;8.87;;;;;;;-4.52;63.72;101937.84;6304617;28;20123;-73
2022/01/24 08:18:32;;;;;;;19.10;9.80;;;;;;;-4.40;63.89;101927.19;6303549;28;20772;-68
2022/01/24 08:21:33;;;;;;;34.00;14.13;;;;;;;-4.14;63.40;101928.81;6287673;28;20074;-74
2022/01/24 08:24:34;;;;;;;24.65;11.25;;;;;;;-4.06;63.36;101931.56;6322284;28;20472;-69
2022/01/24 08:27:35;;;;;;;22.85;8.38;;;;;;;-3.88;61.56;101941.44;6322089;28;20044;-72
2022/01/24 08:30:36;;;;;;;18.27;7.25;;;;;;;-3.85;61.20;101937.31;6304078;28;20044;-68
2022/01/24 08:33:37;;;;;;;18.38;9.13;;;;;;;-3.70;60.47;101931.75;6300876;28;20515;-68
2022/01/24 08:36:38;;;;;;;21.73;9.68;;;;;;;-3.47;60.78;101941.72;6262558;28;20041;-68
2022/01/24 08:39:39;;;;;;;14.75;5.95;;;;;;;-3.66;60.08;101941.22;6262542;28;20476;-73
2022/01/24 08:45:47;;;;;;;17.60;8.35;;;;;;;-2.95;59.53;101945.63;6262354;28;20405;-69
2022/01/24 08:48:49;;;;;;;15.18;6.95;;;;;;;-3.11;57.39;101961.38;6278680;28;20559;-73
2022/01/24 08:51:49;;;;;;;14.95;6.53;;;;;;;-3.15;57.83;101955.34;6296570;28;20048;-72
2022/01/24 08:54:51;;;;;;;16.55;7.53;;;;;;;-2.83;57.56;101962.94;6296388;28;20047;-68
2022/01/24 08:57:51;;;;;;;8.73;5.30;;;;;;;-2.84;55.15;101964.63;6296689;28;20033;-73
2022/01/24 09:00:53;;;;;;;12.30;7.15;;;;;;;-2.49;55.75;101961.16;6296320;28;20040;-69
2022/01/24 09:03:54;;;;;;;17.98;7.70;;;;;;;-2.29;53.58;101970.16;6283166;28;20155;-69
2022/01/24 09:06:57;;;;;;;13.95;6.88;;;;;;;-2.06;53.29;101964.69;6313443;28;20040;-74
2022/01/24 09:09:58;;;;;;;23.58;11.60;;;;;;;-2.08;53.27;101966.34;6302877;28;20045;-74
2022/01/24 09:12:59;;;;;;;16.98;8.07;;;;;;;-1.74;53.83;101974.75;6312836;28;20089;-74
2022/01/24 09:16:01;;;;;;;14.52;7.15;;;;;;;-2.03;52.52;101965.63;6281101;28;20401;-73
2022/01/24 09:19:03;;;;;;;18.73;8.85;;;;;;;-1.69;52.70;101976.59;6288682;28;20044;-69
2022/01/24 09:22:05;;;;;;;;;;;;;;;-1.82;51.08;101978.00;6321552;28;20442;-69
2022/01/24 09:25:10;;;;;;;11.20;5.75;;;;;;;-1.79;51.54;101979.78;6296141;28;20384;-68
2022/01/24 09:28:11;;;;;;;14.95;7.93;;;;;;;-1.52;51.08;101982.03;6262765;28;20473;-73
2022/01/24 09:31:12;;;;;;;18.30;8.57;;;;;;;-1.40;50.82;101986.53;6277983;28;20049;-73
2022/01/24 09:34:13;;;;;;;13.73;7.45;;;;;;;-1.34;50.34;101978.06;6278022;28;20083;-73
2022/01/24 09:37:13;;;;;;;15.60;6.68;;;;;;;-1.39;48.74;101993.38;6261724;28;20047;-73
2022/01/24 09:40:16;;;;;;;15.73;6.68;;;;;;;-1.28;48.13;101988.44;6295976;28;20390;-73
2022/01/24 09:43:17;;;;;;;;;;;;;;;-1.10;48.47;101985.34;6278049;28;20061;-73
2022/01/24 09:46:18;;;;;;;12.82;6.45;;;;;;;-0.97;46.51;101986.44;6295835;28;19920;-73
2022/01/24 09:49:19;;;;;;;11.57;5.75;;;;;;;-1.11;46.02;101994.75;6294908;28;20042;-69
2022/01/24 09:52:21;;;;;;;17.15;7.55;;;;;;;-0.98;46.52;101989.84;6318694;28;20124;-68
2022/01/24 09:55:24;;;;;;;20.77;8.75;;;;;;;-0.72;44.82;101987.69;6280825;28;20040;-68
2022/01/24 09:58:24;;;;;;;13.60;8.32;;;;;;;-0.68;46.33;101992.03;6302858;28;20507;-73
2022/01/24 10:01:26;;;;;;;18.73;8.57;;;;;;;-0.48;46.80;101987.25;6312292;28;20036;-74
2022/01/24 10:04:28;;;;;;;13.05;6.70;;;;;;;-0.32;45.10;101981.50;6302664;28;20040;-73
2022/01/24 10:07:29;;;;;;;14.25;7.43;;;;;;;-0.24;44.04;101976.50;6286078;28;20408;-69
2022/01/24 10:10:59;;;;;;;17.88;8.27;;;;;;;-0.27;45.82;101979.00;6286050;28;20041;-73
2022/01/24 10:17:19;;;;;;;11.95;6.07;;;;;;;-0.46;44.09;101975.31;6291344;28;20066;-73
2022/01/24 10:20:26;;;;;;;13.43;6.93;;;;;;;-0.37;44.73;101962.63;6285414;28;20489;-73
2022/01/24 10:23:27;;;;;;;11.32;6.03;;;;;;;-0.35;43.58;101967.75;6295361;28;20037;-68
2022/01/24 10:26:28;;;;;;;13.55;7.30;;;;;;;-0.17;44.00;101960.31;6295266;28;20527;-69
2022/01/24 10:29:29;;;;;;;13.25;5.95;;;;;;;-0.28;42.53;101965.31;6295369;28;20037;-69
2022/01/24 10:32:49;;;;;;;11.98;5.90;;;;;;;-0.32;43.35;101955.00;6277454;28;20134;-73
2022/01/24 10:35:49;;;;;;;19.45;9.15;;;;;;;0.05;45.45;101950.34;6277575;28;20044;-73
2022/01/24 10:38:55;;;;;;;16.85;7.78;;;;;;;0.27;42.94;101944.66;6277476;28;20052;-73
2022/01/24 10:45:41;;;;;;;14.18;6.88;;;;;;;-0.03;42.52;101960.53;6299448;28;20508;-73
2022/01/24 10:48:44;;;;;;;13.52;6.65;;;;;;;0.27;43.23;101960.06;6283756;28;20523;-69
2022/01/24 10:51:45;;;;;;;14.00;7.25;;;;;;;0.34;44.00;101946.44;6299403;28;20064;-73
2022/01/24 10:54:52;;;;;;;13.88;6.07;;;;;;;0.53;41.52;101938.91;6265018;28;20408;-73
2022/01/24 10:57:59;;;;;;;20.35;8.82;;;;;;;0.53;45.06;101941.50;6281320;28;20053;-73
2022/01/24 11:01:00;;;;;;;22.00;8.82;;;;;;;0.59;42.16;101937.28;6299403;28;20127;-73
2022/01/24 11:04:07;;;;;;;12.55;6.60;;;;;;;1.00;41.48;101936.81;6281311;28;20063;-73
2022/01/24 11:07:07;;;;;;;13.98;6.68;;;;;;;0.67;42.21;101927.09;6310907;28;20043;-69
2022/01/24 11:10:08;;;;;;;13.00;6.13;;;;;;;0.69;39.95;101934.81;6306123;28;20040;-73
2022/01/24 11:13:11;;;;;;;13.70;7.18;;;;;;;0.66;42.32;101927.94;6324231;28;20044;-73
2022/01/24 11:16:12;;;;;;;11.38;5.78;;;;;;;0.69;41.51;101924.53;6306004;28;20048;-69
2022/01/24 11:19:26;;;;;;;11.35;5.90;;;;;;;0.65;40.50;101921.06;6324043;28;20070;-73
2022/01/24 11:22:31;;;;;;;10.82;6.40;;;;;;;1.02;41.02;101920.53;6293184;28;20067;-69
2022/01/24 11:25:42;;;;;;;12.77;6.78;;;;;;;1.04;41.13;101919.69;6317051;28;20047;-73
2022/01/24 11:28:44;;;;;;;11.90;5.97;;;;;;;0.75;38.76;101924.59;6298604;28;20503;-73
2022/01/24 11:32:02;;;;;;;;;;;;;;;0.59;39.53;101926.16;6299043;28;20428;-69
2022/01/24 11:35:04;;;;;;;11.90;6.95;;;;;;;0.64;41.17;101921.03;6298326;28;19928;-73
2022/01/24 11:38:53;;;;;;;13.93;8.10;;;;;;;0.77;40.25;101918.63;6298648;28;20123;-73
2022/01/24 11:41:55;;;;;;;16.80;7.80;;;;;;;0.86;39.50;101914.41;6243468;28;20138;-69
2022/01/24 11:44:59;;;;;;;17.23;6.63;;;;;;;0.81;39.68;101919.50;6295744;28;20088;-73
2022/01/24 11:48:15;;;;;;;14.75;6.60;;;;;;;0.77;38.86;101904.91;6296506;28;20046;-69
2022/01/24 11:51:16;;;;;;;12.13;6.18;;;;;;;0.20;40.12;101906.88;6296987;28;20122;-69
2022/01/24 11:54:56;;;;;;;11.02;6.20;;;;;;;0.06;39.11;101904.16;6278968;28;20448;-69
2022/01/24 11:58:04;;;;;;;9.10;5.30;;;;;;;0.56;38.57;101897.88;6297010;28;20519;-69
2022/01/24 12:01:07;;;;;;;13.25;6.32;;;;;;;0.47;37.78;101905.47;6279946;28;20040;-68
2022/01/24 12:04:08;;;;;;;8.80;5.35;;;;;;;0.63;41.36;101899.63;6297549;28;20534;-69
2022/01/24 12:07:17;;;;;;;14.20;6.15;;;;;;;0.79;38.74;101900.66;6297445;28;20397;-69
2022/01/24 12:10:36;;;;;;;11.02;5.57;;;;;;;1.19;37.92;101891.56;6279766;28;20033;-69
2022/01/24 12:13:54;;;;;;;11.93;5.93;;;;;;;1.07;39.24;101885.44;6279637;28;20049;-69
2022/01/24 12:16:55;;;;;;;12.80;6.90;;;;;;;1.06;40.35;101887.16;6279657;28;20043;-69
2022/01/24 12:19:56;;;;;;;14.80;6.40;;;;;;;1.18;38.82;101889.81;6263153;28;20048;-69
2022/01/24 12:22:59;;;;;;;15.93;6.43;;;;;;;1.13;39.69;101886.38;6279259;28;20040;-69
2022/01/24 12:26:12;;;;;;;17.58;8.88;;;;;;;0.85;39.18;101897.28;6279530;28;20086;-69
2022/01/24 12:29:17;;;;;;;17.02;8.02;;;;;;;0.59;39.72;101903.03;6296964;28;20044;-69
2022/01/24 12:32:23;;;;;;;17.27;8.25;;;;;;;0.54;40.09;101902.13;6279278;28;20517;-68
2022/01/24 12:35:28;;;;;;;14.20;7.57;;;;;;;0.06;40.85;101904.16;6296688;28;20040;-68
2022/01/24 12:38:46;;;;;;;15.15;7.60;;;;;;;0.18;41.52;101896.59;6296806;28;20048;-68
2022/01/24 12:41:53;;;;;;;20.88;8.23;;;;;;;0.18;40.90;101893.19;6296452;28;20044;-73
2022/01/24 12:48:18;;;;;;;14.82;7.80;;;;;;;0.45;40.20;101882.31;6281399;28;20043;-73
2022/01/24 12:51:23;;;;;;;9.95;5.88;;;;;;;0.38;39.52;101893.41;6296605;28;20535;-73
2022/01/24 12:54:32;;;;;;;14.82;7.68;;;;;;;0.16;40.35;101894.88;6278590;28;20040;-68
2022/01/24 12:57:41;;;;;;;15.38;7.38;;;;;;;0.39;40.46;101900.25;6296407;28;20040;-73
2022/01/24 13:00:45;;;;;;;18.05;8.85;;;;;;;0.04;41.02;101903.28;6296240;28;20048;-74
2022/01/24 13:04:02;;;;;;;16.38;8.60;;;;;;;0.00;40.61;101901.53;6262515;28;20123;-73
2022/01/24 13:07:04;;;;;;;17.23;8.77;;;;;;;0.05;40.87;101896.47;6296130;28;20036;-73
2022/01/24 13:10:07;;;;;;;18.73;8.65;;;;;;;0.04;42.28;101895.56;6296230;28;20041;-73
2022/01/24 13:13:13;;;;;;;15.30;8.27;;;;;;;-0.05;41.64;101896.34;6278431;28;20135;-73
2022/01/24 13:23:23;;;;;;;17.25;8.80;;;;;;;0.37;41.47;101891.66;6201313;28;20050;-68
2022/01/24 13:26:24;;;;;;;19.15;7.75;;;;;;;0.15;40.99;101893.16;6295966;28;20044;-73
2022/01/24 13:29:37;;;;;;;15.50;8.90;;;;;;;0.20;43.63;101902.59;6295981;28;20040;-73
2022/01/24 13:32:52;;;;;;;23.33;9.73;;;;;;;0.22;40.34;101905.19;6296115;28;20481;-70
2022/01/24 13:36:07;;;;;;;14.57;7.75;;;;;;;0.24;40.54;101903.50;6295951;28;20037;-68
2022/01/24 13:39:11;;;;;;;17.27;8.05;;;;;;;0.36;41.46;101902.78;6295904;28;20044;-69
2022/01/24 13:42:18;;;;;;;17.98;8.63;;;;;;;0.01;41.17;101893.00;6295535;28;20049;-73
2022/01/24 13:45:19;;;;;;;16.83;8.20;;;;;;;0.04;41.63;101893.00;6295846;28;20036;-68
2022/01/24 13:48:22;;;;;;;14.50;8.32;;;;;;;-0.04;41.23;101892.94;6295640;28;20040;-73
2022/01/24 13:51:52;;;;;;;18.05;8.07;;;;;;;-0.17;40.69;101895.31;6261484;28;20481;-73
2022/01/24 13:54:53;;;;;;;15.98;7.50;;;;;;;-0.35;41.73;101898.50;6277694;28;20066;-73
2022/01/24 13:57:54;;;;;;;15.70;8.48;;;;;;;-0.23;43.65;101898.66;6261090;28;20485;-68
2022/01/24 14:00:58;;;;;;;16.65;9.02;;;;;;;-0.08;43.58;101903.16;6276968;28;20082;-73
2022/01/24 14:04:02;;;;;;;18.27;7.97;;;;;;;-0.15;41.95;101901.34;6293023;28;20071;-73
2022/01/24 14:07:11;;;;;;;17.02;8.48;;;;;;;-0.11;42.72;101905.66;6293160;28;20045;-73
2022/01/24 14:10:15;;;;;;;15.90;8.00;;;;;;;-0.17;41.87;101903.88;6293331;28;20052;-73
2022/01/24 14:13:20;;;;;;;13.45;6.30;;;;;;;-0.56;40.88;101905.06;6293418;28;20048;-73
2022/01/24 14:19:43;;;;;;;20.13;8.48;;;;;;;-0.58;41.42;101914.44;6300177;28;20047;-74
2022/01/24 14:22:51;;;;;;;24.15;11.15;;;;;;;-0.65;41.59;101921.16;6265701;28;20060;-74
2022/01/24 14:25:52;;;;;;;47.78;18.27;;;;;;;-0.75;42.27;101921.88;6300149;28;20481;-73
2022/01/24 14:29:12;;;;;;;19.48;9.45;;;;;;;-0.86;42.56;101914.03;6282104;28;20045;-69
2022/01/24 14:32:15;;;;;;;21.23;8.70;;;;;;;-0.94;42.95;101915.59;6265536;28;20052;-73
2022/01/24 14:35:20;;;;;;;20.77;9.70;;;;;;;-1.02;43.60;101912.91;6299824;28;20048;-69
2022/01/24 14:38:55;;;;;;;16.83;8.70;;;;;;;-1.13;43.74;101919.56;6299614;28;20040;-69
2022/01/24 14:41:56;;;;;;;19.20;8.95;;;;;;;-1.11;44.65;101919.56;6299414;28;20794;-69
2022/01/24 14:44:59;;;;;;;18.00;10.27;;;;;;;-1.15;44.70;101910.09;6281749;28;20049;-73
2022/01/24 14:48:06;;;;;;;21.60;10.95;;;;;;;-1.22;43.64;101917.69;6281528;28;20040;-73
2022/01/24 14:51:08;;;;;;;23.40;10.77;;;;;;;-1.22;43.85;101915.13;6281661;28;20050;-69
2022/01/24 14:54:14;;;;;;;20.13;8.65;;;;;;;-1.35;43.88;101918.31;6265128;28;20052;-68
2022/01/24 14:57:16;;;;;;;22.27;9.57;;;;;;;-1.38;43.78;101913.16;6299128;28;20546;-68
2022/01/24 15:00:18;;;;;;;22.40;10.57;;;;;;;-1.38;44.81;101912.28;6299255;28;20040;-68
2022/01/24 15:03:19;;;;;;;20.42;9.88;;;;;;;-1.47;44.07;101908.72;6281321;28;20114;-68
2022/01/24 15:06:21;;;;;;;15.80;9.82;;;;;;;-1.51;43.83;101912.06;6281222;28;20481;-69
2022/01/24 15:09:27;;;;;;;26.57;10.23;;;;;;;-1.60;44.16;101900.78;6281287;28;20063;-69
2022/01/24 15:12:29;;;;;;;23.05;10.90;;;;;;;-1.65;45.32;101914.38;6281087;28;20545;-68
2022/01/24 15:15:32;;;;;;;15.85;8.60;;;;;;;-1.71;45.08;101909.13;6299304;28;20466;-68
2022/01/24 15:28:17;;;;;;;22.42;10.23;;;;;;;-2.06;44.51;101919.53;6298034;28;20481;-68
2022/01/24 15:31:18;;;;;;;20.80;10.10;;;;;;;-2.07;44.93;101919.50;6281355;28;20492;-68
2022/01/24 15:34:19;;;;;;;20.30;8.85;;;;;;;-2.15;45.74;101919.31;6263880;28;20136;-68
2022/01/24 15:37:20;;;;;;;24.40;10.27;;;;;;;-2.26;45.79;101913.13;6298050;28;20137;-68
2022/01/24 15:40:24;;;;;;;30.50;11.18;;;;;;;-2.22;46.14;101920.03;6298328;28;20042;-69
2022/01/24 15:43:51;;;;;;;38.92;14.32;;;;;;;-2.21;47.12;101916.63;6297876;28;20056;-68
2022/01/24 15:46:53;;;;;;;69.72;20.05;;;;;;;-2.24;47.11;101917.44;6297611;28;20416;-68
2022/01/24 15:49:54;;;;;;;73.35;21.38;;;;;;;-2.29;47.01;101913.91;6297908;28;20044;-72
2022/01/24 15:52:58;;;;;;;53.10;21.23;;;;;;;-2.35;46.88;101915.47;6280163;28;20114;-72
2022/01/24 15:59:23;;;;;;;41.47;19.73;;;;;;;-2.53;49.61;101924.47;6289842;28;20505;-68
2022/01/24 16:02:24;;;;;;;44.70;20.58;;;;;;;-2.59;49.58;101926.00;6279820;28;20040;-67
2022/01/24 16:05:27;;;;;;;49.08;19.88;;;;;;;-2.57;50.42;101934.56;6297608;28;20094;-68
2022/01/24 16:08:28;;;;;;;54.80;20.80;;;;;;;-2.58;50.97;101938.81;6297367;28;20404;-68
2022/01/24 16:11:29;;;;;;;46.70;19.90;;;;;;;-2.64;51.44;101931.03;6279794;28;20400;-73
2022/01/24 16:14:30;;;;;;;47.55;21.65;;;;;;;-2.76;50.98;101931.63;6263200;28;20048;-72
2022/01/24 16:17:31;;;;;;;48.20;21.38;;;;;;;-2.75;52.04;101933.31;6263142;28;20070;-72
2022/01/24 16:20:40;;;;;;;53.38;21.67;;;;;;;-2.81;52.64;101925.50;6297094;28;20496;-73
2022/01/24 16:23:47;;;;;;;50.53;21.98;;;;;;;-2.83;52.75;101934.84;6248652;28;20043;-68
2022/01/24 16:26:48;;;;;;;58.90;21.98;;;;;;;-2.86;52.14;101929.66;6279300;28;20037;-68